logo
Search for airport 
image banner adimage banner adimage banner ad
image banner ad

GVAC - Amilcar Cabral/Sal Island

Located in Espargos, Cape Verde

ICAO - GVAC, IATA - SID

Data provided by Airmate  

General information

Coordinates: N16°44'15" W22°57'0"
Elevation is 184 feet MSL.
 
View others Airports in Barlavento Islands

Operational data

Special qualification required
Current time UTC:
Current local time:
Weather
METAR: GVAC 031600Z 05016KT 9999 FEW014 BKN200 23/16 Q1015 NOSIG
TAF: TAF GVAC 050500Z 0506/0612 05018KT 8000 FEW014 PROB40 TEMPO 0511/0517 05022G32KT
View NOTAMs / SUP AIP / TFR affecting this airport [VIEW]
Communications frequencies: [VIEW]

Runways:

RWY identifierQFULength (ft)Width (ft)SurfaceLDA (ft)
01360°9843148ASP
19180°9843148ASP

Airport contact information

Address: Espargos Cape Verde

Handlers

Omni Handling

Omni Handling
[VIEW][VIEW]
+2385944662

Safeport

Safeport
[VIEW][VIEW]
+2389843430

Satellite view of GVAC